Time;durP1;ratioP1;P1;durP2;ratioP2;P2;SDS_P1;SDS_P2;PMS_P1;PMS_P2;Temp;Humidity;BMP_temperature;BMP_pressure;BME280_temperature;BME280_humidity;BME280_pressure;Samples;Min_cycle;Max_cycle;Signal;HPM_P1;HPM_P2
2023/12/29 00:01:32;;;;;;;7.93;1.45;;;9.90;99.90;;;;;;5074243;28;20044;-64
2023/12/29 00:03:57;;;;;;;10.40;1.48;;;9.90;99.90;;;;;;5080824;28;20020;-64
2023/12/29 00:06:23;;;;;;;5.35;1.42;;;9.90;99.90;;;;;;5081253;28;20356;-64
2023/12/29 00:08:49;;;;;;;7.95;1.65;;;9.80;99.90;;;;;;5084769;28;20024;-65
2023/12/29 00:11:21;;;;;;;4.45;1.10;;;10.00;99.90;;;;;;5084317;28;20539;-64
2023/12/29 00:13:47;;;;;;;7.93;1.50;;;9.90;99.90;;;;;;5078012;28;20035;-64
2023/12/29 00:16:13;;;;;;;7.80;1.45;;;9.90;99.90;;;;;;5072013;28;20033;-64
2023/12/29 00:18:39;;;;;;;9.45;1.92;;;9.90;99.90;;;;;;5080939;28;20035;-64
2023/12/29 00:21:05;;;;;;;10.18;1.80;;;9.90;99.90;;;;;;5090163;28;20025;-64
2023/12/29 00:23:31;;;;;;;5.47;1.23;;;9.90;99.90;;;;;;5080296;28;20043;-64
2023/12/29 00:25:57;;;;;;;3.85;1.40;;;9.90;99.90;;;;;;5081887;28;20068;-63
2023/12/29 00:28:22;;;;;;;3.90;1.30;;;10.00;99.90;;;;;;5082331;28;20077;-64
2023/12/29 00:30:48;;;;;;;10.38;1.70;;;10.00;99.90;;;;;;5078999;28;20028;-64
2023/12/29 00:33:14;;;;;;;9.82;1.88;;;10.00;99.90;;;;;;5082933;28;20495;-64
2023/12/29 00:35:39;;;;;;;5.47;1.30;;;10.00;99.90;;;;;;5081270;28;20437;-63
2023/12/29 00:38:06;;;;;;;4.18;1.27;;;10.00;99.90;;;;;;5078861;28;20082;-64
2023/12/29 00:40:32;;;;;;;4.20;1.30;;;10.00;99.90;;;;;;5082175;28;20036;-63
2023/12/29 00:42:59;;;;;;;5.40;1.48;;;10.00;99.90;;;;;;5082139;28;20100;-62
2023/12/29 00:45:25;;;;;;;6.10;1.27;;;10.00;99.90;;;;;;5080669;28;20024;-63
2023/12/29 00:47:51;;;;;;;7.82;1.50;;;10.00;99.90;;;;;;5081058;28;20024;-64
2023/12/29 00:50:17;;;;;;;9.00;1.40;;;10.10;99.90;;;;;;5079414;28;20021;-63
2023/12/29 00:52:43;;;;;;;6.93;1.98;;;10.10;99.90;;;;;;5080376;28;20082;-63
2023/12/29 00:55:09;;;;;;;3.47;1.10;;;10.10;99.90;;;;;;5082802;28;20550;-64
2023/12/29 00:57:34;;;;;;;4.72;1.20;;;10.10;99.90;;;;;;5080163;28;20059;-64
2023/12/29 01:00:01;;;;;;;6.35;1.38;;;10.20;99.90;;;;;;5079714;28;20491;-64
2023/12/29 01:02:26;;;;;;;9.15;1.92;;;10.10;99.90;;;;;;5080070;28;20046;-62
2023/12/29 01:04:52;;;;;;;7.55;1.83;;;10.10;99.90;;;;;;5081798;28;20024;-62
2023/12/29 01:07:18;;;;;;;5.93;1.40;;;10.10;99.90;;;;;;5078602;28;20664;-62
2023/12/29 01:09:43;;;;;;;3.83;1.23;;;10.10;99.90;;;;;;5086160;28;20024;-62
2023/12/29 01:12:09;;;;;;;5.93;1.38;;;10.10;99.90;;;;;;5078359;28;20025;-63
2023/12/29 01:14:35;;;;;;;7.43;1.48;;;10.10;99.90;;;;;;5082531;28;20028;-62
2023/12/29 01:17:01;;;;;;;6.80;1.63;;;10.10;99.90;;;;;;5078636;28;20507;-63
2023/12/29 01:19:26;;;;;;;6.07;1.35;;;10.10;99.90;;;;;;5079377;28;20024;-63
2023/12/29 01:21:52;;;;;;;3.92;1.23;;;10.00;99.90;;;;;;5080176;28;20174;-64
2023/12/29 01:24:18;;;;;;;7.95;1.40;;;10.10;99.90;;;;;;5081178;28;20075;-63
2023/12/29 01:26:43;;;;;;;4.38;1.20;;;10.10;99.90;;;;;;5078055;28;20017;-63
2023/12/29 01:29:09;;;;;;;4.43;1.67;;;10.10;99.90;;;;;;5080031;28;20032;-63
2023/12/29 01:31:34;;;;;;;6.57;1.30;;;10.10;99.90;;;;;;5076167;28;20067;-63
2023/12/29 01:34:00;;;;;;;7.20;1.60;;;10.10;99.90;;;;;;5081291;28;20024;-63
2023/12/29 01:36:26;;;;;;;4.25;1.42;;;10.10;99.90;;;;;;5081079;28;20111;-63
2023/12/29 01:38:52;;;;;;;6.13;1.42;;;10.00;99.90;;;;;;5080405;28;20078;-63
2023/12/29 01:41:20;;;;;;;8.25;1.50;;;10.10;99.90;;;;;;5080264;28;20017;-63
2023/12/29 01:44:00;;;;;;;8.13;1.85;;;10.00;99.90;;;;;;5081467;28;20016;-63
2023/12/29 01:46:30;;;;;;;7.65;1.55;;;10.10;99.90;;;;;;5082052;28;20037;-63
2023/12/29 01:48:58;;;;;;;5.32;1.20;;;10.10;99.90;;;;;;5080122;28;20028;-63
2023/12/29 01:51:25;;;;;;;3.92;1.27;;;10.10;99.90;;;;;;5080015;28;20047;-63
2023/12/29 01:53:53;;;;;;;5.75;1.65;;;10.10;99.90;;;;;;5080732;28;20028;-63
2023/12/29 01:56:20;;;;;;;6.50;1.42;;;10.10;99.90;;;;;;5078842;28;20032;-63
2023/12/29 01:58:48;;;;;;;6.38;1.35;;;10.10;99.90;;;;;;5079343;28;20433;-63
2023/12/29 02:01:15;;;;;;;5.63;1.20;;;10.10;99.90;;;;;;5079040;28;20039;-64
2023/12/29 02:03:43;;;;;;;5.80;2.10;;;10.10;99.90;;;;;;5078895;28;20113;-64
2023/12/29 02:06:10;;;;;;;8.57;1.80;;;10.00;99.90;;;;;;5079953;28;20516;-63
2023/12/29 02:08:37;;;;;;;5.55;1.70;;;10.00;99.90;;;;;;5081809;28;20650;-63
2023/12/29 02:11:04;;;;;;;7.10;2.20;;;9.80;99.90;;;;;;5081512;28;20028;-63
2023/12/29 02:13:29;;;;;;;5.18;1.60;;;9.80;99.90;;;;;;5081276;28;20535;-63
2023/12/29 02:16:02;;;;;;;8.73;1.67;;;9.70;99.90;;;;;;5077558;28;20024;-63
2023/12/29 02:18:32;;;;;;;11.18;1.80;;;9.70;99.90;;;;;;5076847;28;20471;-63
2023/12/29 02:20:58;;;;;;;5.70;1.48;;;9.50;99.90;;;;;;5081067;28;20056;-63
2023/12/29 02:23:23;;;;;;;11.20;1.70;;;9.40;99.90;;;;;;5078820;28;20058;-63
2023/12/29 02:25:50;;;;;;;8.38;2.08;;;9.50;99.90;;;;;;5079906;28;20707;-63
2023/12/29 02:28:23;;;;;;;5.50;1.70;;;9.40;99.90;;;;;;5079783;28;20024;-64
2023/12/29 02:30:59;;;;;;;8.77;1.85;;;9.40;99.90;;;;;;5078379;28;20131;-63
2023/12/29 02:33:25;;;;;;;11.38;1.90;;;9.30;99.90;;;;;;5077103;28;20422;-63
2023/12/29 02:35:54;;;;;;;9.48;2.47;;;9.10;99.90;;;;;;5079191;28;20085;-63
2023/12/29 02:38:20;;;;;;;8.13;2.50;;;9.00;99.90;;;;;;5077345;28;20124;-63
2023/12/29 02:40:46;;;;;;;9.13;1.90;;;9.00;99.90;;;;;;5078033;28;20515;-64
2023/12/29 02:43:11;;;;;;;5.57;1.90;;;8.80;99.90;;;;;;5075822;28;20051;-63
2023/12/29 02:45:37;;;;;;;5.10;1.70;;;8.70;99.90;;;;;;5077725;28;20399;-63
2023/12/29 02:48:03;;;;;;;11.05;2.30;;;8.70;99.90;;;;;;5081166;28;20024;-63
2023/12/29 02:50:28;;;;;;;11.13;2.50;;;8.60;99.90;;;;;;5076876;28;20562;-63
2023/12/29 02:52:54;;;;;;;13.43;2.75;;;8.60;99.90;;;;;;5080446;28;20035;-62
2023/12/29 02:55:20;;;;;;;9.93;2.38;;;8.50;99.90;;;;;;5080825;28;20457;-63
2023/12/29 02:57:45;;;;;;;8.05;2.28;;;8.50;99.90;;;;;;5078247;28;20035;-63
2023/12/29 03:00:11;;;;;;;11.50;2.55;;;8.50;99.90;;;;;;5074234;28;20045;-64
2023/12/29 03:02:37;;;;;;;8.45;2.13;;;8.50;99.90;;;;;;5080118;28;20165;-63
2023/12/29 03:05:03;;;;;;;7.32;2.25;;;8.40;99.90;;;;;;5084083;28;20095;-63
2023/12/29 03:07:29;;;;;;;9.52;2.60;;;8.40;99.90;;;;;;5075798;28;20024;-63
2023/12/29 03:09:55;;;;;;;10.63;2.35;;;8.30;99.90;;;;;;5081613;28;20027;-63
2023/12/29 03:12:20;;;;;;;13.57;2.47;;;8.30;99.90;;;;;;5089774;28;20058;-63
2023/12/29 03:14:49;;;;;;;7.57;2.45;;;8.30;99.90;;;;;;5082343;28;20064;-63
2023/12/29 03:17:14;;;;;;;8.48;2.50;;;8.30;99.90;;;;;;5088171;28;20455;-63
2023/12/29 03:19:40;;;;;;;11.65;2.60;;;8.20;99.90;;;;;;5078939;28;20031;-63
2023/12/29 03:22:05;;;;;;;9.93;3.17;;;8.30;99.90;;;;;;5078095;28;20032;-63
2023/12/29 03:24:31;;;;;;;9.80;2.75;;;8.30;99.90;;;;;;5084436;28;20032;-63
2023/12/29 03:26:57;;;;;;;14.13;2.92;;;8.30;99.90;;;;;;5077323;28;20380;-63
2023/12/29 03:29:23;;;;;;;8.77;2.75;;;8.30;99.90;;;;;;5080656;28;20024;-63
2023/12/29 03:31:48;;;;;;;9.52;2.60;;;8.30;99.90;;;;;;5080717;28;20054;-63
2023/12/29 03:34:14;;;;;;;10.40;2.28;;;8.30;99.90;;;;;;5081018;28;20434;-63
2023/12/29 03:36:40;;;;;;;11.75;2.88;;;8.40;99.90;;;;;;5082793;28;20388;-63
2023/12/29 03:39:05;;;;;;;7.50;1.95;;;8.40;99.90;;;;;;5080901;28;20032;-63
2023/12/29 03:41:31;;;;;;;10.05;2.40;;;8.40;99.90;;;;;;5081862;28;20047;-64
2023/12/29 03:43:57;;;;;;;9.48;2.38;;;8.50;99.90;;;;;;5083074;28;20047;-63
2023/12/29 03:46:23;;;;;;;9.25;2.25;;;8.60;99.90;;;;;;5078352;28;20028;-63
2023/12/29 03:48:49;;;;;;;8.25;2.22;;;8.60;99.90;;;;;;5075092;28;20028;-63
2023/12/29 03:51:15;;;;;;;9.63;2.45;;;8.70;99.90;;;;;;5075922;28;20020;-63
2023/12/29 03:53:41;;;;;;;9.35;2.15;;;8.80;99.90;;;;;;5075812;28;20611;-63
2023/12/29 03:56:08;;;;;;;6.95;1.95;;;8.70;99.90;;;;;;5079394;28;20020;-63
2023/12/29 03:58:37;;;;;;;7.68;1.55;;;8.80;99.90;;;;;;5078842;28;20033;-63
2023/12/29 04:01:03;;;;;;;8.88;2.03;;;8.80;99.90;;;;;;5075604;28;20044;-63
2023/12/29 04:03:29;;;;;;;11.95;2.20;;;8.90;99.90;;;;;;5085111;28;20042;-63
2023/12/29 04:05:55;;;;;;;9.30;1.90;;;8.90;99.90;;;;;;5080478;28;20066;-63
2023/12/29 04:08:20;;;;;;;7.18;1.42;;;9.00;99.90;;;;;;5083958;28;20387;-63
2023/12/29 04:10:46;;;;;;;11.55;4.43;;;9.10;99.90;;;;;;5083833;28;20024;-63
2023/12/29 04:13:11;;;;;;;7.85;2.05;;;9.10;99.90;;;;;;5081897;28;20020;-63
2023/12/29 04:15:37;;;;;;;7.07;1.52;;;9.20;99.90;;;;;;5082044;28;20450;-63
2023/12/29 04:18:03;;;;;;;6.85;1.80;;;9.20;99.90;;;;;;5082529;28;20451;-63
2023/12/29 04:20:28;;;;;;;10.73;1.65;;;9.20;99.90;;;;;;5079457;28;20017;-64
2023/12/29 04:22:55;;;;;;;11.73;2.08;;;9.30;99.90;;;;;;5084208;28;20020;-63
2023/12/29 04:25:20;;;;;;;11.25;1.80;;;9.30;99.90;;;;;;5078740;28;20119;-63
2023/12/29 04:27:46;;;;;;;5.38;1.52;;;9.30;99.90;;;;;;5082929;28;20107;-63
2023/12/29 04:30:12;;;;;;;8.02;1.70;;;9.30;99.90;;;;;;5082899;28;20069;-63
2023/12/29 04:32:37;;;;;;;8.68;2.50;;;9.30;99.90;;;;;;5083931;28;20035;-63
2023/12/29 04:35:03;;;;;;;6.00;1.55;;;9.40;99.90;;;;;;5082535;28;20030;-63
2023/12/29 04:37:29;;;;;;;9.60;1.85;;;9.30;99.90;;;;;;5080266;28;20379;-63
2023/12/29 04:39:55;;;;;;;8.50;1.80;;;9.30;99.90;;;;;;5084011;28;20110;-63
2023/12/29 04:42:20;;;;;;;7.88;1.70;;;9.30;99.90;;;;;;5072889;28;20024;-64
2023/12/29 04:44:46;;;;;;;7.95;1.77;;;9.40;99.90;;;;;;5082337;28;20032;-63
2023/12/29 04:47:11;;;;;;;6.43;1.80;;;9.40;99.90;;;;;;5080696;28;20032;-63
2023/12/29 04:49:37;;;;;;;11.20;1.80;;;9.40;99.90;;;;;;5080853;28;20020;-63
2023/12/29 04:52:03;;;;;;;10.93;2.42;;;9.50;99.90;;;;;;5081749;28;20069;-63
2023/12/29 04:54:28;;;;;;;6.82;1.30;;;9.40;99.90;;;;;;5080190;28;20392;-63
2023/12/29 04:56:54;;;;;;;6.93;1.52;;;9.40;99.90;;;;;;5082297;28;20577;-63
2023/12/29 04:59:20;;;;;;;11.02;2.20;;;9.40;99.90;;;;;;5078575;28;20054;-63
2023/12/29 05:01:45;;;;;;;11.10;2.25;;;9.40;99.90;;;;;;5078023;28;20040;-63
2023/12/29 05:04:11;;;;;;;7.43;2.05;;;9.40;99.90;;;;;;5078051;28;20029;-62
2023/12/29 05:06:36;;;;;;;7.85;1.88;;;9.40;99.90;;;;;;5080092;28;20121;-62
2023/12/29 05:09:02;;;;;;;12.73;1.88;;;9.40;99.90;;;;;;5081489;28;20024;-62
2023/12/29 05:11:28;;;;;;;6.38;1.35;;;9.30;99.90;;;;;;5078471;28;20027;-62
2023/12/29 05:13:53;;;;;;;8.63;1.88;;;9.30;99.90;;;;;;5079201;28;20032;-62
2023/12/29 05:16:20;;;;;;;10.98;3.05;;;9.30;99.90;;;;;;5076477;28;20043;-62
2023/12/29 05:18:45;;;;;;;7.30;1.60;;;9.30;99.90;;;;;;5075046;28;20024;-62
2023/12/29 05:21:18;;;;;;;8.35;1.77;;;9.20;99.90;;;;;;5079101;28;20495;-62
2023/12/29 05:23:45;;;;;;;10.90;1.88;;;9.20;99.90;;;;;;5081489;28;20340;-62
2023/12/29 05:26:11;;;;;;;8.73;2.47;;;9.10;99.90;;;;;;5078975;28;20031;-62
2023/12/29 05:28:37;;;;;;;7.00;1.50;;;9.10;99.90;;;;;;5080515;28;20021;-62
2023/12/29 05:31:05;;;;;;;10.00;2.05;;;9.10;99.90;;;;;;5075926;28;20062;-62
2023/12/29 05:33:32;;;;;;;7.65;1.60;;;9.10;99.90;;;;;;5077557;28;20452;-63
2023/12/29 05:35:58;;;;;;;5.82;1.77;;;9.20;99.90;;;;;;5077715;28;20534;-63
2023/12/29 05:38:23;;;;;;;6.20;1.90;;;9.20;99.90;;;;;;5081024;28;20460;-62
2023/12/29 05:40:50;;;;;;;10.25;2.13;;;9.30;99.90;;;;;;5078394;28;20056;-62
2023/12/29 05:43:16;;;;;;;8.25;1.65;;;9.30;99.90;;;;;;5074006;28;20024;-62
2023/12/29 05:45:42;;;;;;;13.48;2.65;;;9.30;99.90;;;;;;5078749;28;20029;-62
2023/12/29 05:48:08;;;;;;;12.13;2.17;;;9.40;99.90;;;;;;5086554;28;20023;-63
2023/12/29 05:50:34;;;;;;;11.07;2.00;;;9.50;99.90;;;;;;5079910;28;20056;-62
2023/12/29 05:52:59;;;;;;;3.97;1.40;;;9.40;99.90;;;;;;5080386;28;20063;-62
2023/12/29 05:55:25;;;;;;;7.20;1.55;;;9.40;99.90;;;;;;5086000;28;20058;-62
2023/12/29 05:57:51;;;;;;;9.52;1.58;;;9.50;99.90;;;;;;5081535;28;20035;-62
2023/12/29 06:00:16;;;;;;;8.32;1.95;;;9.50;99.90;;;;;;5084079;28;20058;-62
2023/12/29 06:02:43;;;;;;;5.82;1.50;;;9.50;99.90;;;;;;5077954;28;20158;-62
2023/12/29 06:05:10;;;;;;;8.55;1.67;;;9.50;99.90;;;;;;5082268;28;20024;-62
2023/12/29 06:07:36;;;;;;;6.20;1.40;;;9.50;99.90;;;;;;5076935;28;20451;-62
2023/12/29 06:10:03;;;;;;;8.25;1.88;;;9.50;99.90;;;;;;5080197;28;20086;-62
2023/12/29 06:12:28;;;;;;;6.88;1.42;;;9.50;99.90;;;;;;5079955;28;20047;-63
2023/12/29 06:14:54;;;;;;;6.82;1.38;;;9.60;99.90;;;;;;5078470;28;20052;-63
2023/12/29 06:17:20;;;;;;;5.77;1.50;;;9.60;99.90;;;;;;5078031;28;20032;-64
2023/12/29 06:19:45;;;;;;;6.43;1.52;;;9.60;99.90;;;;;;5081510;28;20028;-63
2023/12/29 06:22:11;;;;;;;5.30;1.58;;;9.60;99.90;;;;;;5077339;28;20079;-63
2023/12/29 06:24:43;;;;;;;5.25;1.27;;;9.60;99.90;;;;;;5080652;28;20032;-63
2023/12/29 06:27:09;;;;;;;4.85;1.30;;;9.60;99.90;;;;;;5078646;28;20012;-63
2023/12/29 06:29:35;;;;;;;6.38;1.48;;;9.60;99.90;;;;;;5082005;28;20031;-63
2023/12/29 06:32:01;;;;;;;6.68;1.70;;;9.60;99.90;;;;;;5080279;28;20036;-63
2023/12/29 06:34:26;;;;;;;3.63;1.27;;;9.60;99.90;;;;;;5082899;28;20032;-63
2023/12/29 06:36:52;;;;;;;6.82;1.48;;;9.60;99.90;;;;;;5084375;28;20666;-63
2023/12/29 06:39:18;;;;;;;7.55;1.75;;;9.60;99.90;;;;;;5082222;28;20105;-63
2023/12/29 06:41:43;;;;;;;8.75;1.67;;;9.60;99.90;;;;;;5081258;28;20036;-63
2023/12/29 06:44:10;;;;;;;9.10;1.83;;;9.60;99.90;;;;;;5087907;28;20066;-63
2023/12/29 06:46:39;;;;;;;5.15;1.80;;;9.60;99.90;;;;;;5084272;28;20024;-64
2023/12/29 06:49:07;;;;;;;5.38;2.00;;;9.60;99.90;;;;;;5080976;28;20040;-64
2023/12/29 06:51:34;;;;;;;9.45;1.67;;;9.60;99.90;;;;;;5081396;28;20113;-63
2023/12/29 06:54:00;;;;;;;7.38;1.75;;;9.60;99.90;;;;;;5074844;28;20221;-63
2023/12/29 06:56:26;;;;;;;5.53;1.42;;;9.60;99.90;;;;;;5081111;28;20103;-64
2023/12/29 06:58:51;;;;;;;5.90;1.88;;;9.60;99.90;;;;;;5082532;28;20341;-63
2023/12/29 07:01:17;;;;;;;3.60;1.17;;;9.60;99.90;;;;;;5079310;28;20047;-64
2023/12/29 07:03:43;;;;;;;5.45;1.40;;;9.60;99.90;;;;;;5080228;28;20025;-63
2023/12/29 07:06:10;;;;;;;5.35;1.40;;;9.60;99.90;;;;;;5097870;28;20020;-63
2023/12/29 07:08:36;;;;;;;6.65;1.75;;;9.60;99.90;;;;;;5077672;28;20032;-64
2023/12/29 07:11:02;;;;;;;10.02;1.73;;;9.60;99.90;;;;;;5069265;28;20024;-63
2023/12/29 07:13:27;;;;;;;10.43;1.70;;;9.60;99.90;;;;;;5071067;28;20020;-64
2023/12/29 07:15:53;;;;;;;7.78;1.60;;;9.60;99.90;;;;;;5076270;28;20021;-63
2023/12/29 07:18:19;;;;;;;6.93;1.55;;;9.60;99.90;;;;;;5070451;28;20498;-64
2023/12/29 07:20:44;;;;;;;8.40;1.50;;;9.60;99.90;;;;;;5080377;28;20025;-64
2023/12/29 07:23:10;;;;;;;7.85;1.80;;;9.60;99.90;;;;;;5079062;28;20032;-62
2023/12/29 07:25:36;;;;;;;10.13;1.63;;;9.60;99.90;;;;;;5080812;28;20523;-62
2023/12/29 07:28:01;;;;;;;8.65;1.50;;;9.60;99.90;;;;;;5080071;28;20024;-62
2023/12/29 07:30:27;;;;;;;6.93;1.80;;;9.60;99.90;;;;;;5083567;28;20036;-62
2023/12/29 07:32:53;;;;;;;7.80;1.90;;;9.50;99.90;;;;;;5076370;28;20107;-63
2023/12/29 07:35:19;;;;;;;7.60;1.67;;;9.40;99.90;;;;;;5079536;28;20107;-63
2023/12/29 07:37:46;;;;;;;10.57;1.70;;;9.30;99.90;;;;;;5076004;28;20460;-63
2023/12/29 07:40:13;;;;;;;6.50;2.10;;;9.10;99.90;;;;;;5078464;28;20025;-63
2023/12/29 07:42:44;;;;;;;9.55;3.05;;;9.00;99.90;;;;;;5070516;28;20009;-63
2023/12/29 07:45:10;;;;;;;12.77;2.17;;;8.80;99.90;;;;;;5072845;28;20636;-62
2023/12/29 07:47:35;;;;;;;8.25;2.10;;;8.70;99.90;;;;;;5079262;28;20039;-62
2023/12/29 07:50:01;;;;;;;6.45;1.50;;;8.60;99.90;;;;;;5080520;28;20387;-62
2023/12/29 07:52:27;;;;;;;7.53;1.83;;;8.50;99.90;;;;;;5079851;28;20074;-62
2023/12/29 07:54:53;;;;;;;7.35;2.00;;;8.50;99.90;;;;;;5078044;28;20029;-63
2023/12/29 07:57:19;;;;;;;10.75;2.10;;;8.40;99.90;;;;;;5075831;28;20028;-62
2023/12/29 07:59:44;;;;;;;8.63;1.92;;;8.40;99.90;;;;;;5073837;28;20036;-63
2023/12/29 08:02:10;;;;;;;13.70;2.95;;;8.30;99.90;;;;;;5075892;28;20038;-62
2023/12/29 08:04:35;;;;;;;8.57;1.70;;;8.30;99.90;;;;;;5075422;28;20024;-62
2023/12/29 08:07:01;;;;;;;8.82;2.53;;;8.30;99.90;;;;;;5076259;28;20039;-62
2023/12/29 08:09:27;;;;;;;9.65;2.10;;;8.30;99.90;;;;;;5075893;28;20434;-63
2023/12/29 08:11:53;;;;;;;5.55;1.63;;;8.20;99.90;;;;;;5079690;28;20077;-62
2023/12/29 08:14:18;;;;;;;11.70;2.10;;;8.30;99.90;;;;;;5075527;28;20032;-62
2023/12/29 08:16:44;;;;;;;8.13;2.10;;;8.20;99.90;;;;;;5076241;28;20028;-62
2023/12/29 08:19:10;;;;;;;17.90;2.95;;;8.20;99.90;;;;;;5080270;28;20564;-62
2023/12/29 08:21:36;;;;;;;10.00;2.78;;;8.30;99.90;;;;;;5079261;28;20103;-62
2023/12/29 08:24:02;;;;;;;9.30;2.30;;;8.30;99.90;;;;;;5075673;28;20024;-62
2023/12/29 08:26:29;;;;;;;8.23;2.85;;;8.30;99.90;;;;;;5084898;28;20024;-63
2023/12/29 08:28:54;;;;;;;8.15;2.47;;;8.30;99.90;;;;;;5082149;28;20032;-62
2023/12/29 08:31:20;;;;;;;10.52;2.38;;;8.30;99.90;;;;;;5079941;28;20051;-62
2023/12/29 08:33:46;;;;;;;8.70;2.30;;;8.30;99.90;;;;;;5080755;28;20021;-62
2023/12/29 08:36:12;;;;;;;10.95;2.50;;;8.30;99.90;;;;;;5082421;28;20095;-62
2023/12/29 08:38:38;;;;;;;6.82;2.00;;;8.30;99.90;;;;;;5086161;28;20020;-62
2023/12/29 08:41:04;;;;;;;8.52;2.08;;;8.30;99.90;;;;;;5078748;28;20028;-62
2023/12/29 08:43:30;;;;;;;8.95;2.20;;;8.30;99.90;;;;;;5075805;28;20100;-63
2023/12/29 08:45:56;;;;;;;4.95;1.65;;;8.30;99.90;;;;;;5072652;28;20102;-62
2023/12/29 08:48:22;;;;;;;7.90;2.30;;;8.30;99.90;;;;;;5075270;28;20102;-62
2023/12/29 08:50:48;;;;;;;8.63;2.30;;;8.40;99.90;;;;;;5082456;28;20024;-62
2023/12/29 08:53:15;;;;;;;7.45;2.20;;;8.30;99.90;;;;;;5075024;28;20025;-62
2023/12/29 08:55:41;;;;;;;6.45;1.83;;;8.30;99.90;;;;;;5076319;28;20055;-62
2023/12/29 08:58:07;;;;;;;7.22;2.20;;;8.40;99.90;;;;;;5080533;28;20534;-62
2023/12/29 09:00:32;;;;;;;7.72;1.83;;;8.40;99.90;;;;;;5075800;28;20135;-62
2023/12/29 09:02:58;;;;;;;10.40;2.03;;;8.50;99.90;;;;;;5074616;28;20705;-62
2023/12/29 09:05:24;;;;;;;5.05;1.52;;;8.40;99.90;;;;;;5070758;28;20112;-62
2023/12/29 09:07:50;;;;;;;5.63;1.60;;;8.40;99.90;;;;;;5081372;28;20459;-62
2023/12/29 09:10:15;;;;;;;5.30;1.70;;;8.50;99.90;;;;;;5087849;28;20031;-61
2023/12/29 09:12:41;;;;;;;8.18;1.80;;;8.50;99.90;;;;;;5080385;28;20085;-62
2023/12/29 09:15:07;;;;;;;5.75;1.63;;;8.50;99.90;;;;;;5079236;28;20040;-61
2023/12/29 09:17:34;;;;;;;9.77;2.00;;;8.60;99.90;;;;;;5080303;28;20465;-62
2023/12/29 09:20:00;;;;;;;6.68;1.50;;;8.60;99.90;;;;;;5078878;28;20028;-62
2023/12/29 09:22:26;;;;;;;10.75;2.00;;;8.60;99.90;;;;;;5082224;28;20368;-62
2023/12/29 09:24:51;;;;;;;10.88;2.38;;;8.60;99.90;;;;;;5077524;28;20025;-61
2023/12/29 09:27:17;;;;;;;7.05;1.92;;;8.60;99.90;;;;;;5080667;28;20036;-61
2023/12/29 09:29:43;;;;;;;3.10;1.10;;;8.60;99.90;;;;;;5078854;28;20032;-61
2023/12/29 09:32:08;;;;;;;6.03;1.55;;;8.60;99.90;;;;;;5085711;28;20436;-61
2023/12/29 09:34:34;;;;;;;4.03;1.38;;;8.70;99.90;;;;;;5081191;28;20111;-62
2023/12/29 09:37:00;;;;;;;6.13;1.20;;;8.80;99.90;;;;;;5078458;28;20094;-61
2023/12/29 09:39:25;;;;;;;7.18;1.40;;;8.80;99.90;;;;;;5081690;28;20032;-62
2023/12/29 09:42:00;;;;;;;3.92;1.45;;;8.80;99.90;;;;;;5077317;28;20438;-62
2023/12/29 09:44:30;;;;;;;3.60;1.10;;;8.60;99.90;;;;;;5073405;28;20506;-62
2023/12/29 09:47:00;;;;;;;4.25;1.10;;;8.80;99.90;;;;;;5074608;28;20021;-62
2023/12/29 09:49:30;;;;;;;6.28;1.20;;;9.00;99.90;;;;;;5074353;28;20111;-62
2023/12/29 09:51:58;;;;;;;1.75;0.80;;;9.00;99.90;;;;;;5074949;28;20035;-62
2023/12/29 09:54:24;;;;;;;2.22;0.80;;;9.00;99.90;;;;;;5081717;28;20122;-62
2023/12/29 09:56:51;;;;;;;2.60;0.93;;;9.20;99.90;;;;;;5079429;28;20032;-62
2023/12/29 09:59:17;;;;;;;2.00;0.80;;;9.10;99.90;;;;;;5079070;28;20474;-63
2023/12/29 10:01:45;;;;;;;2.83;0.90;;;9.10;99.90;;;;;;5077769;28;20051;-62
2023/12/29 10:04:11;;;;;;;3.05;0.88;;;9.20;99.90;;;;;;5081284;28;20455;-62
2023/12/29 10:06:41;;;;;;;2.58;1.00;;;9.20;99.90;;;;;;5081101;28;20032;-62
2023/12/29 10:09:10;;;;;;;3.08;0.80;;;9.20;99.90;;;;;;5082074;28;20032;-62
2023/12/29 10:11:37;;;;;;;1.65;0.80;;;9.10;99.90;;;;;;5079198;28;20031;-63
2023/12/29 10:14:18;;;;;;;3.03;0.90;;;9.10;99.90;;;;;;5078534;28;20033;-63
2023/12/29 10:16:48;;;;;;;2.80;1.00;;;9.10;99.90;;;;;;5079139;28;20081;-63
2023/12/29 10:19:39;;;;;;;2.22;0.90;;;9.00;99.90;;;;;;5080714;28;20031;-63
2023/12/29 10:22:18;;;;;;;4.82;0.90;;;9.00;99.90;;;;;;5075359;28;20024;-63
2023/12/29 10:24:46;;;;;;;2.40;1.00;;;8.90;99.90;;;;;;5078221;28;20028;-63
2023/12/29 10:27:13;;;;;;;1.85;0.88;;;9.00;99.90;;;;;;5080120;28;20379;-63
2023/12/29 10:29:39;;;;;;;4.22;0.80;;;9.00;99.90;;;;;;5079495;28;20024;-62
2023/12/29 10:32:05;;;;;;;2.95;0.85;;;8.90;99.90;;;;;;5078597;28;20055;-63
2023/12/29 10:34:31;;;;;;;3.75;1.08;;;8.90;99.90;;;;;;5080765;28;20487;-63
2023/12/29 10:36:58;;;;;;;1.58;0.75;;;8.90;99.90;;;;;;5078042;28;20021;-62
2023/12/29 10:39:24;;;;;;;1.63;0.80;;;9.00;99.90;;;;;;5081279;28;20106;-62
2023/12/29 10:42:01;;;;;;;3.20;1.10;;;8.90;99.90;;;;;;5073191;28;20105;-63
2023/12/29 10:44:27;;;;;;;2.85;0.93;;;8.80;99.90;;;;;;5077355;28;20615;-63
2023/12/29 10:46:53;;;;;;;0.90;0.68;;;8.70;99.90;;;;;;5080574;28;20035;-63
2023/12/29 10:49:18;;;;;;;1.50;0.80;;;8.70;99.90;;;;;;5077822;28;20357;-63
2023/12/29 10:51:44;;;;;;;1.40;0.70;;;8.70;99.90;;;;;;5086967;28;20039;-63
2023/12/29 10:54:22;;;;;;;1.27;0.80;;;8.70;99.90;;;;;;5078951;28;20087;-63
2023/12/29 10:57:01;;;;;;;1.85;0.80;;;8.70;99.90;;;;;;5079759;28;20069;-63
2023/12/29 10:59:27;;;;;;;2.97;1.38;;;8.80;99.90;;;;;;5074795;28;20435;-63
2023/12/29 11:01:53;;;;;;;2.25;0.90;;;8.80;99.90;;;;;;5078749;28;20068;-63
2023/12/29 11:04:22;;;;;;;2.63;0.90;;;8.90;99.90;;;;;;5073384;28;20074;-63
2023/12/29 11:06:50;;;;;;;5.63;1.00;;;8.90;99.90;;;;;;5072843;28;20024;-63
2023/12/29 11:09:29;;;;;;;2.83;1.08;;;9.00;99.90;;;;;;5080617;28;20020;-63
2023/12/29 11:12:03;;;;;;;4.03;1.23;;;9.00;99.90;;;;;;5073967;28;20016;-63
2023/12/29 11:14:28;;;;;;;3.15;1.00;;;9.20;99.90;;;;;;5079962;28;20149;-63
2023/12/29 11:16:55;;;;;;;2.67;0.82;;;9.20;99.90;;;;;;5081052;28;20046;-63
2023/12/29 11:19:21;;;;;;;3.22;0.88;;;9.30;99.90;;;;;;5088943;28;20051;-63
2023/12/29 11:21:53;;;;;;;2.15;0.90;;;9.40;99.90;;;;;;5071871;28;20025;-63
2023/12/29 11:24:18;;;;;;;1.70;0.85;;;9.50;99.90;;;;;;5077299;28;20415;-62
2023/12/29 11:26:44;;;;;;;1.30;0.80;;;9.60;99.90;;;;;;5083403;28;20016;-63
2023/12/29 11:29:11;;;;;;;3.35;1.00;;;9.70;99.90;;;;;;5079739;28;20039;-63
2023/12/29 11:31:41;;;;;;;3.13;1.00;;;9.80;99.90;;;;;;5080082;28;20422;-63
2023/12/29 11:34:14;;;;;;;5.75;1.25;;;9.80;99.90;;;;;;5083325;28;20021;-63
2023/12/29 11:36:46;;;;;;;3.45;1.23;;;9.70;99.90;;;;;;5081138;28;20525;-63
2023/12/29 11:39:46;;;;;;;3.47;1.00;;;9.60;99.90;;;;;;5083422;28;20031;-63
2023/12/29 11:42:21;;;;;;;3.33;1.13;;;9.70;99.90;;;;;;5068930;28;20036;-63
2023/12/29 11:44:48;;;;;;;4.60;1.50;;;9.70;99.90;;;;;;5075874;28;20368;-63
2023/12/29 11:47:36;;;;;;;4.25;1.50;;;9.80;99.90;;;;;;5080587;28;20023;-63
2023/12/29 11:50:03;;;;;;;4.95;1.42;;;9.80;99.90;;;;;;5080054;28;20016;-63
2023/12/29 11:52:37;;;;;;;7.97;1.80;;;9.80;99.90;;;;;;5082516;28;20016;-63
2023/12/29 11:55:09;;;;;;;5.13;1.50;;;9.80;99.90;;;;;;5082300;28;20095;-63
2023/12/29 11:57:36;;;;;;;5.50;1.55;;;9.90;99.90;;;;;;5082818;28;20025;-64
2023/12/29 12:00:05;;;;;;;5.70;1.50;;;10.00;99.90;;;;;;5080317;28;20083;-63
2023/12/29 12:02:30;;;;;;;3.40;1.17;;;10.10;99.90;;;;;;5080752;28;20039;-62
2023/12/29 12:04:56;;;;;;;7.25;1.80;;;10.10;99.90;;;;;;5083904;28;20016;-63
2023/12/29 12:07:22;;;;;;;6.10;1.40;;;10.20;99.90;;;;;;5083968;28;20436;-63
2023/12/29 12:09:51;;;;;;;3.05;1.00;;;10.20;99.90;;;;;;5079555;28;20104;-63
2023/12/29 12:12:42;;;;;;;6.70;1.20;;;10.10;99.90;;;;;;5083852;28;20383;-63
2023/12/29 12:15:38;;;;;;;5.65;1.27;;;10.00;99.90;;;;;;5078776;28;20515;-63
2023/12/29 12:18:11;;;;;;;3.60;1.20;;;10.00;99.90;;;;;;5065426;28;20040;-63
2023/12/29 12:20:36;;;;;;;7.03;1.15;;;9.90;99.90;;;;;;5079840;28;20028;-63
2023/12/29 12:23:12;;;;;;;5.72;1.80;;;9.90;99.90;;;;;;5081854;28;20024;-63
2023/12/29 12:25:39;;;;;;;5.65;1.25;;;9.80;99.90;;;;;;5079505;28;20025;-63
2023/12/29 12:28:10;;;;;;;5.20;1.40;;;9.80;99.90;;;;;;5083212;28;20016;-63
2023/12/29 12:30:35;;;;;;;3.80;1.40;;;9.90;99.90;;;;;;5081005;28;20023;-63
2023/12/29 12:33:02;;;;;;;4.22;1.25;;;9.90;99.90;;;;;;5079092;28;20038;-63
2023/12/29 12:35:29;;;;;;;6.43;1.10;;;10.00;99.90;;;;;;5081225;28;20103;-64
2023/12/29 12:38:14;;;;;;;4.07;1.02;;;10.00;99.90;;;;;;5086492;28;20039;-62
2023/12/29 12:40:40;;;;;;;3.13;1.17;;;10.10;99.90;;;;;;5077057;28;20111;-62
2023/12/29 12:43:06;;;;;;;3.17;1.20;;;10.10;99.90;;;;;;5081283;28;20112;-62
2023/12/29 12:45:39;;;;;;;2.75;1.20;;;10.10;99.90;;;;;;5081366;28;20030;-62
2023/12/29 12:48:32;;;;;;;5.53;1.30;;;9.90;99.90;;;;;;5075906;28;20055;-63
2023/12/29 12:50:59;;;;;;;4.18;1.40;;;10.00;99.90;;;;;;5074876;28;20048;-62
2023/12/29 12:53:27;;;;;;;6.15;1.52;;;9.90;99.90;;;;;;5081308;28;20065;-63